KWDG/WDG METAR and TAF weather

Enter ICAO airport designator
Station Type Date Time Source
KWDG METAR 2019/04/18 10:55 UTC NOAA

KWDG 181055Z AUTO 35012KT 10SM CLR 11/08 A2979 RMK AO2


Station Type Date Time Source
KWDG Decoded METAR 2019/04/18 10:55 UTC NOAA

Enid, Enid Woodring Regional Airport, OK, United States (KWDG) 36-22-45N 097-47-28W
Apr 18, 2019 - 06:55 AM EDT / 2019.04.18 1055 UTC
Wind: from the N (350 degrees) at 14 MPH (12 KT):0
Visibility: 10 mile(s):0
Sky conditions: clear
Temperature: 51 F (11 C)
Dew Point: 46 F (8 C)
Relative Humidity: 81%
Pressure (altimeter): 29.79 in. Hg (1008 hPa)
ob: KWDG 181055Z AUTO 35012KT 10SM CLR 11/08 A2979 RMK AO2
cycle: 11

Station Type Date Time Source
KWDG TAF UTC NOAA

Error!

Example: see airport list